• Join FlightAware (Why Join?)
  • Login
  • US Flag 
05:19AM EDT


 

Airport Tracker/Info


-or-


 

Live Flight TrackerFlight Track Log ✈ SWA1563 ✈ 18-Nov-2013 ✈ KSNA - KSJC

Flight Track Log - Related Links

Times and Time Zones

All times are in EST time to prevent confusion due to time zone crossing. See the SWA1563 flight status page for this flight to view local times or setup timezone preferences in your user account.

Time Position Orientation Groundspeed Altitude Reporting Facility
EST Latitude Longitude Course Direction KTS MPH feet Rate Location/Type
10:27PM 33.6333 -117.9000 320° Northwest 150 173 2,400  Level Southern California TRACON
10:28PM 33.5711 -117.9022 182° South 173 199 4,700 2,640 Climbing Los Angeles Center
10:29PM 33.5050 -117.9478 210° Southwest 260 299 8,400 3,420 Climbing Los Angeles Center
10:30PM 33.4344 -117.9972 210° Southwest 283 326 11,800 3,120 Climbing Los Angeles Center
10:31PM 33.3525 -118.0606 213° Southwest 332 382 14,900 3,120 Climbing Los Angeles Center
10:32PM 34.1175 -118.3283 320° Northwest  Level Estimated
10:32PM 33.3539 -118.1742 271° West 362 417 18,200  Level Los Angeles Center
10:33PM 33.4236 -118.2694 311° West 375 432 21,600 2,820 Climbing Los Angeles Center
10:34PM 33.4958 -118.3678 311° West 385 443 24,000 1,140 Climbing Los Angeles Center
10:35PM 33.5717 -118.4711 311° West 403 464 24,000 300 Level Los Angeles Center
10:36PM 33.6461 -118.5725 311° West 399 459 24,700 840 Climbing Los Angeles Center
10:37PM 33.7203 -118.6725 312° West 397 457 25,800 840 Climbing Los Angeles Center
10:38PM 33.7939 -118.7747 311° West 401 461 26,500 1,020 Climbing Los Angeles Center
10:40PM 33.8675 -118.8775 311° West 405 466 28,000 1,380 Climbing Los Angeles Center
10:41PM 33.9558 -118.9981 311° West 399 459 29,400 1,320 Climbing Los Angeles Center
10:42PM 34.0322 -119.1053 311° West 419 482 30,800 1,860 Climbing Los Angeles Center
10:43PM 34.1081 -119.2119 311° West 419 482 33,300 2,520 Climbing Los Angeles Center
10:44PM 34.1806 -119.3125 311° West 400 460 36,000 2,400 Climbing Los Angeles Center
10:45PM 34.2492 -119.4083 311° West 381 438 38,300 1,800 Climbing Los Angeles Center
10:46PM 34.3139 -119.5000 311° West 363 418 39,700 780 Climbing Los Angeles Center
10:47PM 34.3800 -119.5925 311° West 363 418 40,000 120 Climbing Los Angeles Center
10:48PM 34.4469 -119.6864 311° West 369 425 40,000  Level Los Angeles Center
10:49PM 34.5328 -119.7939 314° West 369 425 40,000  Level Los Angeles Center
10:50PM 34.6150 -119.8603 326° Northwest 383 441 40,000  Level Los Angeles Center
10:51PM 34.7031 -119.9314 326° Northwest 381 438 40,000  Level Los Angeles Center
10:52PM 34.7908 -120.0036 326° Northwest 382 440 40,000  Level Los Angeles Center
10:53PM 34.8783 -120.0758 326° Northwest 379 436 40,000  Level Los Angeles Center
10:54PM 34.9744 -120.1547 326° Northwest 379 436 40,000  Level Los Angeles Center
10:55PM 35.0594 -120.2272 325° Northwest 376 433 40,000  Level Los Angeles Center
10:56PM 35.1450 -120.2981 326° Northwest 375 432 40,000  Level Los Angeles Center
10:57PM 35.2292 -120.3694 325° Northwest 370 426 40,000  Level Los Angeles Center
10:58PM 35.3325 -120.4575 325° Northwest 374 430 40,000  Level Los Angeles Center
10:59PM 35.4161 -120.5289 325° Northwest 372 428 40,000  Level Los Angeles Center
11:00PM 35.5011 -120.6014 325° Northwest 375 432 40,000  Level Los Angeles Center
11:01PM 35.5861 -120.6736 325° Northwest 373 429 40,000 -60 Level Los Angeles Center
11:02PM 35.6706 -120.7442 326° Northwest 367 422 39,900 -1,080 Descending Los Angeles Center
11:03PM 35.7531 -120.8147 325° Northwest 362 417 37,800 -2,340 Descending Los Angeles Center
11:04PM 35.8356 -120.8858 325° Northwest 361 415 35,200 -2,940 Descending Los Angeles Center
11:05PM 35.9386 -120.9739 325° Northwest 373 429 31,800 -2,700 Descending Los Angeles Center
11:07PM 36.0633 -121.0792 326° Northwest 386 444 28,500 -2,280 Descending Oakland Center
11:08PM 36.1489 -121.1517 326° Northwest 376 433 26,200 -2,220 Descending Oakland Center
11:09PM 36.2333 -121.2244 325° Northwest 370 426 24,000 -2,100 Descending Oakland Center
11:10PM 36.3169 -121.2958 325° Northwest 365 420 22,000 -1,980 Descending Oakland Center
11:11PM 36.3947 -121.3614 326° Northwest 341 392 20,000 -2,220 Descending Oakland Center
11:12PM 36.4883 -121.3964 343° North 350 403 17,500 -2,220 Descending Oakland Center
11:13PM 36.5828 -121.4239 347° North 348 400 15,500 -2,040 Descending Oakland Center
11:14PM 36.6736 -121.4514 346° North 338 389 13,400 -2,040 Descending Oakland Center
11:15PM 36.7636 -121.4794 346° North 331 381 11,500 -1,740 Descending Oakland Center
11:16PM 36.8606 -121.5139 344° North 317 365 9,900 -1,500 Descending Oakland Center
11:17PM 36.9311 -121.5586 333° Northwest 296 341 8,500 -1,500 Descending Oakland Center
11:18PM 36.9986 -121.6058 331° Northwest 283 326 6,900 -1,380 Descending Oakland Center
11:19PM 37.0644 -121.6494 332° Northwest 273 314 5,800 -900 Descending Oakland Center
11:20PM 37.1333 -121.6833 339° North 243 280 5,200 -780 Descending Northern Cal TRACON
11:21PM 37.1833 -121.7333 321° Northwest 233 268 4,300 -1,080 Descending Northern Cal TRACON
11:22PM 37.2333 -121.7833 321° Northwest 216 249 3,100 -1,080 Descending Northern Cal TRACON
11:23PM 37.2667 -121.8333 310° West 196 226 2,200 -900 Descending Northern Cal TRACON
11:24PM 37.3167 -121.8667 332° Northwest 163 188 1,300 -840 Descending Northern Cal TRACON
11:25PM 37.3333 -121.9000 302° West 128 147 600 -720 Descending Northern Cal TRACON
11:28PM 37.3500 -121.9167 North  Level FlightAware Approximate